Dade City, FL (33523)

6:13 AM EDT on September 28, 2016 (GMT -0400)
Dade City Fire Station 36 | | Change Station

Elev 171 ft 28.41 °N, 82.24 °W | Updated 6 minutes ago

Clear
Clear
70.3 °F
Feels Like 70.3 °F
N
0.0
Wind Variable Wind from ESE
Gusts 0.0 mph

Today
High -- | Low -- °F
--% Chance of Precip.
Yesterday
High -- | Low -- °F
Precip. -- in
Pressure 29.97 in
Visibility 10.0 miles
Clouds Clear
Dew Point 70 °F
Humidity 98%
Rainfall 0.00 in
Snow Depth Not available.
7:20 AM 7:17 PM
Waning Crescent, 6% visible
METAR KBKV 280953Z AUTO 16003KT 10SM CLR 22/22 A2997 RMK AO2 SLP147 T02170217 $
Pressure 29.97 in
Visibility 10.0 miles
Clouds Clear
Dew Point 70 °F
Humidity 98%
Rainfall 0.00 in
Snow Depth Not available.
7:20 AM 7:17 PM
Waning Crescent, 6% visible
METAR KBKV 280953Z AUTO 16003KT 10SM CLR 22/22 A2997 RMK AO2 SLP147 T02170217 $

10-Day Weather Forecast

Almanac

Astronomy

Sep. 28, 2016 Rise Set
Actual Time
Civil Twilight
Nautical Twilight
Astronomical Twilight
Moon
Length of Visible Light
Length of Day
Tomorrow will be .
, % of the Moon is Illuminated

Today's Extremes

State Highs State Lows

Community

WunderPhotos

Upload Photos

1,942,216 photos uploaded!

WunderBlog® & News

Nearby

Air Quality

  Air Quality AQ Index Pollutant
Not available.

Snow Depth

Station Depth Elevation

Earthquake Activity

City Distance Mag. Time & Date
Minimum magnitude displayed is 2.5.

Coastal Water Temperatures

Place Temperature

Stations

Nearby Weather Stations

Station Location Temp. Windchill Dew Point Humidity Wind Precip. Elev Updated Type
                   

Watches & Warnings

There are currently no watches in effect.